createdAt,value
2019-05-07T00:00:24.143Z,0.00
2019-05-07T00:01:24.112Z,0.00
2019-05-07T00:02:24.101Z,0.00
2019-05-07T00:03:24.095Z,0.00
2019-05-07T00:04:24.083Z,0.00
2019-05-07T00:05:24.088Z,0.00
2019-05-07T00:06:24.059Z,0.00
2019-05-07T00:07:24.063Z,0.00
2019-05-07T00:08:24.064Z,0.00
2019-05-07T00:09:24.023Z,0.00
2019-05-07T00:10:24.877Z,0.00
2019-05-07T00:11:24.002Z,0.00
2019-05-07T00:12:23.988Z,0.00
2019-05-07T00:13:23.979Z,0.00
2019-05-07T00:14:23.967Z,0.00
2019-05-07T00:15:23.977Z,0.00
2019-05-07T00:16:23.946Z,0.00
2019-05-07T00:17:23.932Z,0.00
2019-05-07T00:18:23.921Z,0.00
2019-05-07T00:19:23.914Z,0.00
2019-05-07T00:20:23.919Z,0.00
2019-05-07T00:21:23.887Z,0.00
2019-05-07T00:22:23.879Z,0.00
2019-05-07T00:23:23.865Z,0.00
2019-05-07T00:24:23.890Z,0.00
2019-05-07T00:25:23.861Z,0.00
2019-05-07T00:26:23.830Z,0.00
2019-05-07T00:27:23.818Z,0.00
2019-05-07T00:28:23.830Z,0.00
2019-05-07T00:29:23.815Z,0.00
2019-05-07T00:30:23.827Z,0.00
2019-05-07T00:31:23.774Z,0.00
2019-05-07T00:32:23.768Z,0.00
2019-05-07T00:33:23.752Z,0.00
2019-05-07T00:34:23.741Z,0.00
2019-05-07T00:35:23.751Z,0.00
2019-05-07T00:36:23.718Z,0.00
2019-05-07T00:37:23.709Z,0.00
2019-05-07T00:38:23.705Z,0.00
2019-05-07T00:39:23.685Z,0.00
2019-05-07T00:40:23.695Z,0.00
2019-05-07T00:41:23.662Z,0.00
2019-05-07T00:42:23.675Z,0.00
2019-05-07T00:43:23.650Z,0.00
2019-05-07T00:44:23.627Z,0.00
2019-05-07T00:45:23.982Z,0.00
2019-05-07T00:46:23.610Z,0.00
2019-05-07T00:47:23.595Z,0.00
2019-05-07T00:48:23.662Z,0.00
2019-05-07T00:49:23.573Z,0.00
2019-05-07T00:50:23.581Z,0.00
2019-05-07T00:51:23.553Z,0.00
2019-05-07T00:52:23.542Z,0.00
2019-05-07T00:53:23.831Z,0.00
2019-05-07T00:54:23.519Z,0.00
2019-05-07T00:55:23.525Z,0.00
2019-05-07T00:56:23.494Z,0.00
2019-05-07T00:57:23.482Z,0.00
2019-05-07T00:58:26.673Z,0.00
2019-05-07T00:59:23.463Z,0.00
2019-05-07T01:00:23.471Z,0.00
2019-05-07T01:01:23.443Z,0.00
2019-05-07T01:02:23.429Z,0.00
2019-05-07T01:03:23.416Z,0.00
2019-05-07T01:04:23.407Z,0.00
2019-05-07T01:05:23.429Z,0.00
2019-05-07T01:06:26.390Z,0.00
2019-05-07T01:07:23.373Z,0.00
2019-05-07T01:08:23.359Z,0.00
2019-05-07T01:09:23.392Z,0.00
2019-05-07T01:10:23.358Z,0.00
2019-05-07T01:11:23.328Z,0.00
2019-05-07T01:12:23.318Z,0.00
2019-05-07T01:13:23.607Z,0.00
2019-05-07T01:14:23.292Z,0.00
2019-05-07T01:15:31.207Z,0.00
2019-05-07T01:16:23.273Z,0.00
2019-05-07T01:17:23.261Z,0.00
2019-05-07T01:18:23.571Z,0.00
2019-05-07T01:19:23.239Z,0.00
2019-05-07T01:20:23.228Z,0.00
2019-05-07T01:21:23.233Z,0.00
2019-05-07T01:22:23.203Z,0.00
2019-05-07T01:23:23.229Z,0.00
2019-05-07T01:24:23.444Z,0.00
2019-05-07T01:25:23.170Z,0.00
2019-05-07T01:26:23.178Z,0.00
2019-05-07T01:27:23.147Z,0.00
2019-05-07T01:28:23.138Z,0.00
2019-05-07T01:29:23.127Z,0.00
2019-05-07T01:30:23.253Z,0.00
2019-05-07T01:31:23.124Z,0.00
2019-05-07T01:32:23.134Z,0.00
2019-05-07T01:33:23.081Z,0.00
2019-05-07T01:34:23.226Z,0.00
2019-05-07T01:35:23.078Z,0.00
2019-05-07T01:36:23.069Z,0.00
2019-05-07T01:37:23.251Z,0.00
2019-05-07T01:38:23.073Z,0.00
2019-05-07T01:39:23.311Z,0.00
2019-05-07T01:40:23.006Z,0.00
2019-05-07T01:41:23.167Z,0.00
2019-05-07T01:42:22.986Z,0.00
2019-05-07T01:43:22.977Z,0.00
2019-05-07T01:44:22.959Z,0.00
2019-05-07T01:45:25.029Z,0.00
2019-05-07T01:46:24.707Z,0.00
2019-05-07T01:47:23.692Z,0.00
2019-05-07T01:48:23.132Z,0.00
2019-05-07T01:49:24.040Z,0.00
2019-05-07T01:50:22.923Z,0.00
2019-05-07T01:51:22.900Z,0.00
2019-05-07T01:52:22.881Z,0.00
2019-05-07T01:53:22.993Z,0.00
2019-05-07T01:54:23.845Z,0.00
2019-05-07T01:55:22.837Z,0.00
2019-05-07T01:56:23.062Z,0.00
2019-05-07T01:57:23.255Z,0.00
2019-05-07T01:58:22.807Z,0.00
2019-05-07T01:59:22.794Z,0.00
2019-05-07T02:00:22.781Z,0.00
2019-05-07T02:01:22.790Z,0.00
2019-05-07T02:02:23.042Z,0.00
2019-05-07T02:03:23.152Z,0.00
2019-05-07T02:04:22.738Z,0.00
2019-05-07T02:05:22.945Z,0.00
2019-05-07T02:06:22.846Z,0.00
2019-05-07T02:07:22.783Z,0.00
2019-05-07T02:08:22.694Z,0.00
2019-05-07T02:09:22.696Z,0.00
2019-05-07T02:10:22.816Z,0.00
2019-05-07T02:11:22.685Z,0.00
2019-05-07T02:12:22.650Z,0.00
2019-05-07T02:13:22.638Z,0.00
2019-05-07T02:14:22.627Z,0.00
2019-05-07T02:15:22.755Z,0.00
2019-05-07T02:16:22.641Z,0.00
2019-05-07T02:17:22.895Z,0.00
2019-05-07T02:18:22.581Z,0.00
2019-05-07T02:19:22.569Z,0.00
2019-05-07T02:20:22.673Z,0.00
2019-05-07T02:21:22.570Z,0.00
2019-05-07T02:22:22.767Z,0.00
2019-05-07T02:23:22.534Z,0.00
2019-05-07T02:24:22.513Z,0.00
2019-05-07T02:25:22.507Z,0.00
2019-05-07T02:26:22.779Z,0.00
2019-05-07T02:27:22.487Z,0.00
2019-05-07T02:28:22.469Z,0.00
2019-05-07T02:29:22.857Z,0.00
2019-05-07T02:30:23.765Z,0.00
2019-05-07T02:31:23.256Z,0.00
2019-05-07T02:32:24.125Z,0.00
2019-05-07T02:33:23.112Z,0.00
2019-05-07T02:34:23.469Z,0.00
2019-05-07T02:35:23.484Z,0.00
2019-05-07T02:36:23.672Z,0.00
2019-05-07T02:37:23.261Z,0.00
2019-05-07T02:38:23.157Z,0.00
2019-05-07T02:39:24.035Z,0.00
2019-05-07T02:40:23.089Z,0.00
2019-05-07T02:41:23.319Z,0.00
2019-05-07T02:42:23.888Z,0.00
2019-05-07T02:43:22.888Z,0.00
2019-05-07T02:44:23.222Z,0.00
2019-05-07T02:45:23.952Z,0.00
2019-05-07T02:46:29.932Z,0.00
2019-05-07T02:47:23.710Z,0.00
2019-05-07T02:48:23.749Z,0.00
2019-05-07T02:49:23.495Z,0.00
2019-05-07T02:50:22.852Z,0.00
2019-05-07T02:51:24.041Z,0.00
2019-05-07T02:52:22.906Z,0.00
2019-05-07T02:53:22.872Z,0.00
2019-05-07T02:54:24.241Z,0.00
2019-05-07T02:55:23.264Z,0.00
2019-05-07T02:56:23.595Z,0.00
2019-05-07T02:57:24.010Z,0.00
2019-05-07T02:58:24.012Z,0.00
2019-05-07T02:59:23.278Z,0.00
2019-05-07T03:00:24.203Z,0.00
2019-05-07T03:01:22.765Z,0.00
2019-05-07T03:02:24.097Z,0.00
2019-05-07T03:03:24.616Z,0.00
2019-05-07T03:04:24.640Z,0.00
2019-05-07T03:05:23.001Z,0.00
2019-05-07T03:06:23.322Z,0.00
2019-05-07T03:07:24.259Z,0.00
2019-05-07T03:08:27.018Z,0.00
2019-05-07T03:09:22.756Z,0.00
2019-05-07T03:10:23.758Z,0.00
2019-05-07T03:11:22.946Z,0.00
2019-05-07T03:12:23.691Z,0.00
2019-05-07T03:13:23.739Z,0.00
2019-05-07T03:14:23.424Z,0.00
2019-05-07T03:15:24.174Z,0.00
2019-05-07T03:16:38.821Z,0.00
2019-05-07T03:17:24.661Z,0.00
2019-05-07T03:18:23.295Z,0.00
2019-05-07T03:19:24.229Z,0.00
2019-05-07T03:20:22.958Z,0.00
2019-05-07T03:21:23.469Z,0.00
2019-05-07T03:22:23.174Z,0.00
2019-05-07T03:23:22.793Z,0.00
2019-05-07T03:24:23.059Z,0.00
2019-05-07T03:25:23.122Z,0.00
2019-05-07T03:26:23.077Z,0.00
2019-05-07T03:27:23.497Z,0.00
2019-05-07T03:28:23.106Z,0.00
2019-05-07T03:29:24.014Z,0.00
2019-05-07T03:30:26.008Z,0.00
2019-05-07T03:31:26.177Z,0.00
2019-05-07T03:32:27.342Z,4.00
2019-05-07T03:33:26.215Z,4.00
2019-05-07T03:34:25.599Z,0.00
2019-05-07T03:35:26.640Z,0.00
2019-05-07T03:36:26.047Z,4.00
2019-05-07T03:37:23.405Z,4.00
2019-05-07T03:38:22.817Z,0.00
2019-05-07T03:39:24.119Z,4.00
2019-05-07T03:40:23.046Z,4.00
2019-05-07T03:41:22.663Z,4.00
2019-05-07T03:42:23.587Z,8.00
2019-05-07T03:43:22.864Z,4.00
2019-05-07T03:44:23.882Z,4.00
2019-05-07T03:45:23.054Z,8.00
2019-05-07T03:46:23.429Z,12.00
2019-05-07T03:47:23.865Z,8.00
2019-05-07T03:48:23.758Z,12.00
2019-05-07T03:49:22.571Z,16.00
2019-05-07T03:50:23.383Z,16.00
2019-05-07T03:51:23.725Z,16.00
2019-05-07T03:52:24.547Z,16.00
2019-05-07T03:53:23.131Z,20.00
2019-05-07T03:54:23.925Z,24.00
2019-05-07T03:55:23.369Z,24.00
2019-05-07T03:56:23.631Z,28.00
2019-05-07T03:57:23.727Z,32.00
2019-05-07T03:58:23.505Z,28.00
2019-05-07T03:59:23.092Z,32.00
2019-05-07T04:00:23.894Z,32.00
2019-05-07T04:01:24.029Z,36.00
2019-05-07T04:02:23.846Z,40.00
2019-05-07T04:03:24.279Z,44.00
2019-05-07T04:04:23.050Z,48.00
2019-05-07T04:05:23.206Z,48.00
2019-05-07T04:06:23.354Z,52.00
2019-05-07T04:07:23.228Z,56.00
2019-05-07T04:08:23.736Z,64.00
2019-05-07T04:09:24.035Z,68.00
2019-05-07T04:10:23.206Z,68.00
2019-05-07T04:11:23.064Z,76.00
2019-05-07T04:12:23.851Z,80.00
2019-05-07T04:13:23.867Z,84.00
2019-05-07T04:14:23.172Z,92.00
2019-05-07T04:15:23.320Z,96.00
2019-05-07T04:16:23.967Z,100.00
2019-05-07T04:17:26.308Z,104.00
2019-05-07T04:18:23.776Z,108.00
2019-05-07T04:19:23.586Z,112.00
2019-05-07T04:20:24.015Z,116.00
2019-05-07T04:21:23.177Z,120.00
2019-05-07T04:22:23.845Z,124.00
2019-05-07T04:23:23.237Z,128.00
2019-05-07T04:24:23.495Z,132.00
2019-05-07T04:25:24.080Z,132.00
2019-05-07T04:26:23.259Z,136.00
2019-05-07T04:27:23.844Z,144.00
2019-05-07T04:28:23.542Z,152.00
2019-05-07T04:29:23.113Z,160.00
2019-05-07T04:30:23.612Z,164.00
2019-05-07T04:31:22.964Z,168.00
2019-05-07T04:32:23.204Z,176.00
2019-05-07T04:33:23.573Z,184.00
2019-05-07T04:34:23.829Z,196.00
2019-05-07T04:35:21.064Z,200.00
2019-05-07T04:36:23.070Z,204.00
2019-05-07T04:37:23.754Z,220.00
2019-05-07T04:38:23.708Z,216.00
2019-05-07T04:39:23.196Z,212.00
2019-05-07T04:40:24.069Z,204.00
2019-05-07T04:41:23.396Z,200.00
2019-05-07T04:42:24.023Z,192.00
2019-05-07T04:49:13.075Z,208.00
2019-05-07T04:49:33.355Z,216.00
2019-05-07T04:50:42.599Z,224.00
2019-05-07T04:51:33.997Z,228.00
2019-05-07T04:52:33.751Z,240.00
2019-05-07T04:53:33.095Z,252.00
2019-05-07T04:54:33.105Z,264.00
2019-05-07T04:55:33.605Z,284.00
2019-05-07T04:56:33.656Z,300.00
2019-05-07T04:57:33.120Z,316.00
2019-05-07T04:58:33.765Z,328.00
2019-05-07T04:59:33.187Z,344.00
2019-05-07T05:00:33.638Z,360.00
2019-05-07T05:01:33.050Z,376.00
2019-05-07T05:02:32.867Z,380.00
2019-05-07T05:03:34.710Z,380.00
2019-05-07T05:04:34.944Z,384.00
2019-05-07T05:05:33.143Z,380.00
2019-05-07T05:06:33.072Z,376.00
2019-05-07T05:07:33.478Z,380.00
2019-05-07T05:08:32.825Z,392.00
2019-05-07T05:09:33.207Z,404.00
2019-05-07T05:10:33.768Z,428.00
2019-05-07T05:11:33.513Z,460.00
2019-05-07T05:12:32.831Z,504.00
2019-05-07T05:13:33.323Z,548.00
2019-05-07T05:14:33.879Z,568.00
2019-05-07T05:15:32.720Z,584.00
2019-05-07T05:16:32.859Z,600.00
2019-05-07T05:17:46.237Z,620.00
2019-05-07T05:18:33.083Z,656.00
2019-05-07T05:19:32.678Z,696.00
2019-05-07T05:20:33.649Z,716.00
2019-05-07T05:21:32.651Z,732.00
2019-05-07T05:22:32.639Z,740.00
2019-05-07T05:23:32.653Z,748.00
2019-05-07T05:24:33.074Z,752.00
2019-05-07T05:25:32.606Z,760.00
2019-05-07T05:26:32.754Z,768.00
2019-05-07T05:27:32.753Z,756.00
2019-05-07T05:28:32.574Z,744.00
2019-05-07T05:29:32.587Z,748.00
2019-05-07T05:30:32.781Z,752.00
2019-05-07T05:31:33.171Z,752.00
2019-05-07T05:32:32.556Z,748.00
2019-05-07T05:33:32.552Z,728.00
2019-05-07T05:34:32.980Z,732.00
2019-05-07T05:35:32.494Z,760.00
2019-05-07T05:36:33.105Z,788.00
2019-05-07T05:37:32.472Z,796.00
2019-05-07T05:38:33.099Z,784.00
2019-05-07T05:39:32.475Z,764.00
2019-05-07T05:40:32.441Z,756.00
2019-05-07T05:41:34.044Z,752.00
2019-05-07T05:42:33.045Z,764.00
2019-05-07T05:43:32.404Z,792.00
2019-05-07T05:44:32.418Z,812.00
2019-05-07T05:45:33.477Z,836.00
2019-05-07T05:46:32.369Z,868.00
2019-05-07T05:47:32.983Z,892.00
2019-05-07T05:48:33.399Z,912.00
2019-05-07T05:49:32.442Z,908.00
2019-05-07T05:50:33.133Z,908.00
2019-05-07T05:51:32.395Z,916.00
2019-05-07T05:52:32.913Z,932.00
2019-05-07T05:53:32.794Z,948.00
2019-05-07T05:54:32.303Z,968.00
2019-05-07T05:55:32.294Z,988.00
2019-05-07T05:56:32.505Z,1024.00
2019-05-07T05:57:32.421Z,1064.00
2019-05-07T05:58:32.597Z,1088.00
2019-05-07T05:59:46.883Z,1104.00
2019-05-07T06:00:33.216Z,1116.00
2019-05-07T06:01:32.206Z,1104.00
2019-05-07T06:02:32.453Z,1112.00
2019-05-07T06:03:32.379Z,1156.00
2019-05-07T06:04:32.914Z,1200.00
2019-05-07T06:05:34.281Z,1232.00
2019-05-07T06:06:32.711Z,1272.00
2019-05-07T06:07:32.132Z,1296.00
2019-05-07T06:08:32.647Z,1340.00
2019-05-07T06:09:32.838Z,1384.00
2019-05-07T06:10:33.020Z,1408.00
2019-05-07T06:11:32.275Z,1416.00
2019-05-07T06:12:32.762Z,1404.00
2019-05-07T06:13:32.379Z,1376.00
2019-05-07T06:14:33.009Z,1360.00
2019-05-07T06:15:32.746Z,1360.00
2019-05-07T06:16:32.891Z,1388.00
2019-05-07T06:17:32.237Z,1440.00
2019-05-07T06:18:32.749Z,1496.00
2019-05-07T06:19:32.839Z,1556.00
2019-05-07T06:20:32.178Z,1592.00
2019-05-07T06:21:32.359Z,1584.00
2019-05-07T06:22:33.091Z,1584.00
2019-05-07T06:23:33.012Z,1640.00
2019-05-07T06:24:31.965Z,1688.00
2019-05-07T06:25:33.470Z,1700.00
2019-05-07T06:26:32.019Z,1688.00
2019-05-07T06:27:32.543Z,1688.00
2019-05-07T06:28:32.982Z,1708.00
2019-05-07T06:29:32.965Z,1744.00
2019-05-07T06:30:33.843Z,1804.00
2019-05-07T06:31:32.680Z,1840.00
2019-05-07T06:32:32.086Z,1844.00
2019-05-07T06:33:32.451Z,1844.00
2019-05-07T06:34:34.111Z,1872.00
2019-05-07T06:35:32.471Z,1944.00
2019-05-07T06:36:32.817Z,2048.00
2019-05-07T06:37:32.192Z,2192.00
2019-05-07T06:38:32.133Z,2340.00
2019-05-07T06:39:32.787Z,2428.00
2019-05-07T06:40:32.253Z,2468.00
2019-05-07T06:41:32.286Z,2532.00
2019-05-07T06:42:33.238Z,2604.00
2019-05-07T06:43:32.565Z,2672.00
2019-05-07T06:44:32.086Z,2732.00
2019-05-07T06:45:35.167Z,2832.00
2019-05-07T06:46:32.307Z,2924.00
2019-05-07T06:47:31.965Z,3012.00
2019-05-07T06:48:42.223Z,3068.00
2019-05-07T06:49:32.701Z,3080.00
2019-05-07T06:50:32.739Z,3032.00
2019-05-07T06:51:32.834Z,2944.00
2019-05-07T06:52:32.075Z,2848.00
2019-05-07T06:53:33.451Z,2740.00
2019-05-07T06:54:32.201Z,2652.00
2019-05-07T06:55:32.370Z,2544.00
2019-05-07T06:56:32.539Z,2456.00
2019-05-07T06:57:32.988Z,2372.00
2019-05-07T06:58:32.683Z,2288.00
2019-05-07T06:59:34.291Z,2192.00
2019-05-07T07:00:32.010Z,2108.00
2019-05-07T07:01:32.328Z,2008.00
2019-05-07T07:02:32.862Z,1924.00
2019-05-07T07:03:32.785Z,1860.00
2019-05-07T07:04:33.150Z,1816.00
2019-05-07T07:05:33.009Z,1784.00
2019-05-07T07:06:32.173Z,1744.00
2019-05-07T07:07:36.489Z,1704.00
2019-05-07T07:08:32.530Z,1668.00
2019-05-07T07:09:32.945Z,1632.00
2019-05-07T07:10:32.217Z,1592.00
2019-05-07T07:11:31.980Z,1568.00
2019-05-07T07:12:33.101Z,1560.00
2019-05-07T07:13:32.165Z,1548.00
2019-05-07T07:14:33.161Z,1536.00
2019-05-07T07:15:32.045Z,1528.00
2019-05-07T07:16:32.607Z,1548.00
2019-05-07T07:17:32.646Z,1604.00
2019-05-07T07:18:32.279Z,1664.00
2019-05-07T07:19:32.482Z,1720.00
2019-05-07T07:20:32.601Z,1756.00
2019-05-07T07:21:32.669Z,1768.00
2019-05-07T07:22:31.939Z,1784.00
2019-05-07T07:23:32.336Z,1824.00
2019-05-07T07:24:32.905Z,1900.00
2019-05-07T07:25:32.593Z,2016.00
2019-05-07T07:26:32.765Z,2140.00
2019-05-07T07:27:32.177Z,2276.00
2019-05-07T07:28:32.593Z,2416.00
2019-05-07T07:29:32.405Z,2536.00
2019-05-07T07:30:32.632Z,2628.00
2019-05-07T07:31:31.929Z,2756.00
2019-05-07T07:32:31.774Z,2888.00
2019-05-07T07:33:31.982Z,2984.00
2019-05-07T07:34:33.306Z,3112.00
2019-05-07T07:35:32.203Z,3252.00
2019-05-07T07:36:32.028Z,3336.00
2019-05-07T07:37:32.044Z,3452.00
2019-05-07T07:38:32.883Z,3532.00
2019-05-07T07:39:32.299Z,3532.00
2019-05-07T07:40:32.707Z,3532.00
2019-05-07T07:41:32.673Z,3596.00
2019-05-07T07:42:31.988Z,3672.00
2019-05-07T07:43:32.505Z,3732.00
2019-05-07T07:44:33.018Z,3760.00
2019-05-07T07:45:32.444Z,3780.00
2019-05-07T07:46:33.053Z,3828.00
2019-05-07T07:47:32.939Z,3932.00
2019-05-07T07:48:32.051Z,4036.00
2019-05-07T07:49:32.904Z,4168.00
2019-05-07T07:50:32.993Z,4268.00
2019-05-07T07:51:40.767Z,4400.00
2019-05-07T07:52:32.425Z,4504.00
2019-05-07T07:53:34.830Z,4620.00
2019-05-07T07:54:32.069Z,4688.00
2019-05-07T07:55:33.019Z,4740.00
2019-05-07T07:56:45.339Z,4748.00
2019-05-07T07:57:32.435Z,4840.00
2019-05-07T07:58:32.200Z,4904.00
2019-05-07T07:59:32.857Z,4948.00
2019-05-07T08:00:32.879Z,5040.00
2019-05-07T08:01:32.930Z,5096.00
2019-05-07T08:02:32.239Z,5104.00
2019-05-07T08:03:32.917Z,5112.00
2019-05-07T08:04:31.981Z,5136.00
2019-05-07T08:05:32.574Z,5132.00
2019-05-07T08:06:32.660Z,5140.00
2019-05-07T08:07:32.914Z,5144.00
2019-05-07T08:08:31.973Z,5124.00
2019-05-07T08:09:32.418Z,5088.00
2019-05-07T08:10:32.571Z,5072.00
2019-05-07T08:11:31.975Z,5080.00
2019-05-07T08:12:32.527Z,5180.00
2019-05-07T08:13:32.456Z,5340.00
2019-05-07T08:14:32.482Z,5540.00
2019-05-07T08:15:32.831Z,5720.00
2019-05-07T08:16:32.801Z,5884.00
2019-05-07T08:17:32.628Z,6064.00
2019-05-07T08:18:32.653Z,6184.00
2019-05-07T08:19:32.730Z,6296.00
2019-05-07T08:20:32.649Z,6440.00
2019-05-07T08:21:33.023Z,6584.00
2019-05-07T08:22:32.814Z,6652.00
2019-05-07T08:23:31.919Z,6544.00
2019-05-07T08:24:32.063Z,6580.00
2019-05-07T08:25:32.143Z,6576.00
2019-05-07T08:26:32.341Z,6472.00
2019-05-07T08:27:32.533Z,6412.00
2019-05-07T08:28:31.967Z,6396.00
2019-05-07T08:29:32.596Z,6484.00
2019-05-07T08:30:32.624Z,6456.00
2019-05-07T08:31:32.085Z,6336.00
2019-05-07T08:32:32.515Z,6280.00
2019-05-07T08:33:32.268Z,6232.00
2019-05-07T08:34:31.986Z,6128.00
2019-05-07T08:35:32.561Z,5908.00
2019-05-07T08:36:32.985Z,5648.00
2019-05-07T08:37:32.110Z,5492.00
2019-05-07T08:38:32.651Z,5496.00
2019-05-07T08:39:32.622Z,5488.00
2019-05-07T08:40:32.426Z,5500.00
2019-05-07T08:41:31.962Z,5452.00
2019-05-07T08:42:32.014Z,5352.00
2019-05-07T08:43:32.250Z,5196.00
2019-05-07T08:44:32.429Z,5288.00
2019-05-07T08:45:32.507Z,5288.00
2019-05-07T08:46:30.386Z,5312.00
2019-05-07T08:47:31.951Z,5240.00
2019-05-07T08:48:32.090Z,5196.00
2019-05-07T08:49:38.695Z,5124.00
2019-05-07T08:50:32.664Z,5116.00
2019-05-07T08:51:30.319Z,5316.00
2019-05-07T08:52:32.569Z,5324.00
2019-05-07T08:53:30.277Z,5432.00
2019-05-07T08:54:32.080Z,5660.00
2019-05-07T08:55:32.196Z,5756.00
2019-05-07T08:56:31.880Z,5876.00
2019-05-07T08:57:31.889Z,5876.00
2019-05-07T08:58:31.733Z,5664.00
2019-05-07T08:59:31.899Z,5376.00
2019-05-07T09:00:32.436Z,5332.00
2019-05-07T09:01:32.404Z,5496.00
2019-05-07T09:02:32.427Z,5856.00
2019-05-07T09:03:32.306Z,5844.00
2019-05-07T09:04:32.380Z,6012.00
2019-05-07T09:05:32.201Z,6296.00
2019-05-07T09:06:31.884Z,6776.00
2019-05-07T09:07:32.137Z,7476.00
2019-05-07T09:08:32.038Z,7392.00
2019-05-07T09:09:32.253Z,7140.00
2019-05-07T09:10:32.296Z,6880.00
2019-05-07T09:11:32.079Z,6520.00
2019-05-07T09:12:31.835Z,6356.00
2019-05-07T09:13:30.051Z,6172.00
2019-05-07T09:14:32.068Z,6052.00
2019-05-07T09:15:32.006Z,6064.00
2019-05-07T09:16:31.917Z,6160.00
2019-05-07T09:17:31.867Z,6176.00
2019-05-07T09:18:32.108Z,5876.00
2019-05-07T09:19:32.060Z,5856.00
2019-05-07T09:20:31.984Z,5796.00
2019-05-07T09:21:32.060Z,5960.00
2019-05-07T09:22:32.118Z,6220.00
2019-05-07T09:23:31.957Z,6296.00
2019-05-07T09:24:29.928Z,6408.00
2019-05-07T09:25:29.920Z,6788.00
2019-05-07T09:26:29.930Z,7108.00
2019-05-07T09:27:29.895Z,7480.00
2019-05-07T09:28:29.883Z,7340.00
2019-05-07T09:29:29.875Z,7268.00
2019-05-07T09:30:29.867Z,7260.00
2019-05-07T09:31:32.094Z,7160.00
2019-05-07T09:32:29.841Z,7172.00
2019-05-07T09:33:31.909Z,7452.00
2019-05-07T09:34:29.816Z,7628.00
2019-05-07T09:35:31.939Z,7780.00
2019-05-07T09:36:32.132Z,8044.00
2019-05-07T09:37:29.812Z,8104.00
2019-05-07T09:38:29.772Z,8088.00
2019-05-07T09:39:29.762Z,8216.00
2019-05-07T09:40:31.887Z,8456.00
2019-05-07T09:41:29.739Z,8760.00
2019-05-07T09:42:29.749Z,8688.00
2019-05-07T09:43:29.716Z,8840.00
2019-05-07T09:44:29.704Z,9088.00
2019-05-07T09:45:29.692Z,9060.00
2019-05-07T09:46:29.681Z,8616.00
2019-05-07T09:47:29.692Z,8100.00
2019-05-07T09:48:29.663Z,8132.00
2019-05-07T09:49:29.649Z,8388.00
2019-05-07T09:50:29.640Z,8624.00
2019-05-07T09:51:32.013Z,8712.00
2019-05-07T09:52:31.925Z,8724.00
2019-05-07T09:53:29.606Z,8096.00
2019-05-07T09:54:29.591Z,8376.00
2019-05-07T09:55:29.580Z,9256.00
2019-05-07T09:56:31.882Z,9120.00
2019-05-07T09:57:31.509Z,9268.00
2019-05-07T09:58:36.688Z,9920.00
2019-05-07T09:59:29.538Z,10472.00
2019-05-07T10:00:29.531Z,10300.00
2019-05-07T10:01:31.426Z,10020.00
2019-05-07T10:02:29.525Z,9620.00
2019-05-07T10:03:29.493Z,9376.00
2019-05-07T10:04:29.480Z,9324.00
2019-05-07T10:05:29.468Z,9140.00
2019-05-07T10:06:29.458Z,9236.00
2019-05-07T10:07:29.470Z,9216.00
2019-05-07T10:08:31.691Z,8944.00
2019-05-07T10:09:29.425Z,8572.00
2019-05-07T10:10:29.413Z,8308.00
2019-05-07T10:11:29.402Z,8136.00
2019-05-07T10:12:29.418Z,7796.00
2019-05-07T10:13:29.379Z,8300.00
2019-05-07T10:14:29.369Z,9224.00
2019-05-07T10:15:29.360Z,9236.00
2019-05-07T10:16:29.346Z,9536.00
2019-05-07T10:17:29.362Z,9532.00
2019-05-07T10:18:29.327Z,10136.00
2019-05-07T10:19:29.331Z,10200.00
2019-05-07T10:20:29.302Z,9660.00
2019-05-07T10:21:29.292Z,8436.00
2019-05-07T10:22:29.303Z,7688.00
2019-05-07T10:23:29.271Z,7256.00
2019-05-07T10:24:29.257Z,7164.00
2019-05-07T10:25:29.246Z,7460.00
2019-05-07T10:26:29.238Z,7752.00
2019-05-07T10:27:29.246Z,7792.00
2019-05-07T10:28:29.214Z,7668.00
2019-05-07T10:29:29.205Z,7444.00
2019-05-07T10:30:29.197Z,7112.00
2019-05-07T10:31:29.178Z,6916.00
2019-05-07T10:32:29.190Z,6876.00
2019-05-07T10:33:29.157Z,7104.00
2019-05-07T10:34:29.145Z,7432.00
2019-05-07T10:35:31.009Z,7560.00
2019-05-07T10:36:29.122Z,7528.00
2019-05-07T10:37:29.135Z,7356.00
2019-05-07T10:38:29.100Z,6968.00
2019-05-07T10:39:29.091Z,6400.00
2019-05-07T10:40:29.081Z,5972.00
2019-05-07T10:41:29.067Z,5688.00
2019-05-07T10:42:29.078Z,5632.00
2019-05-07T10:43:29.044Z,5528.00
2019-05-07T10:44:29.033Z,5336.00
2019-05-07T10:45:29.022Z,5132.00
2019-05-07T10:46:29.017Z,5060.00
2019-05-07T10:47:29.025Z,5076.00
2019-05-07T10:48:28.989Z,5232.00
2019-05-07T10:49:28.978Z,5564.00
2019-05-07T10:50:36.227Z,6144.00
2019-05-07T10:51:28.961Z,6960.00
2019-05-07T10:52:28.980Z,7728.00
2019-05-07T10:53:28.949Z,8444.00
2019-05-07T10:54:28.926Z,9160.00
2019-05-07T10:55:28.918Z,9816.00
2019-05-07T10:56:28.901Z,10576.00
2019-05-07T10:57:28.892Z,10020.00
2019-05-07T10:58:28.902Z,9424.00
2019-05-07T10:59:28.867Z,9384.00
2019-05-07T11:00:28.858Z,8864.00
2019-05-07T11:01:28.845Z,9068.00
2019-05-07T11:02:28.848Z,9992.00
2019-05-07T11:03:28.847Z,10980.00
2019-05-07T11:04:40.361Z,9008.00
2019-05-07T11:05:29.805Z,8816.00
2019-05-07T11:06:28.792Z,8888.00
2019-05-07T11:07:28.788Z,8316.00
2019-05-07T11:08:28.790Z,6948.00
2019-05-07T11:09:28.758Z,5484.00
2019-05-07T11:10:28.749Z,4848.00
2019-05-07T11:11:28.743Z,5036.00
2019-05-07T11:12:28.727Z,5276.00
2019-05-07T11:13:28.737Z,5316.00
2019-05-07T11:14:28.720Z,4968.00
2019-05-07T11:15:28.691Z,4628.00
2019-05-07T11:16:28.679Z,4348.00
2019-05-07T11:17:28.673Z,4040.00
2019-05-07T11:18:28.679Z,3688.00
2019-05-07T11:19:28.646Z,3596.00
2019-05-07T11:20:28.634Z,3556.00
2019-05-07T11:21:28.623Z,3368.00
2019-05-07T11:22:28.614Z,3080.00
2019-05-07T11:23:28.628Z,2812.00
2019-05-07T11:24:28.589Z,2584.00
2019-05-07T11:25:28.582Z,2392.00
2019-05-07T11:26:28.567Z,2248.00
2019-05-07T11:27:28.557Z,2156.00
2019-05-07T11:28:28.567Z,2084.00
2019-05-07T11:29:28.533Z,2060.00
2019-05-07T11:30:28.532Z,2072.00
2019-05-07T11:31:28.511Z,2096.00
2019-05-07T11:32:28.503Z,2048.00
2019-05-07T11:33:28.515Z,1928.00
2019-05-07T11:34:28.478Z,1832.00
2019-05-07T11:35:28.465Z,1776.00
2019-05-07T11:36:28.488Z,1756.00
2019-05-07T11:37:28.502Z,1780.00
2019-05-07T11:38:28.457Z,1768.00
2019-05-07T11:39:28.422Z,1736.00
2019-05-07T11:40:28.414Z,1684.00
2019-05-07T11:41:28.401Z,1648.00
2019-05-07T11:42:28.389Z,1628.00
2019-05-07T11:43:28.402Z,1608.00
2019-05-07T11:44:28.389Z,1576.00
2019-05-07T11:45:28.358Z,1544.00
2019-05-07T11:46:28.346Z,1504.00
2019-05-07T11:47:28.332Z,1480.00
2019-05-07T11:48:28.346Z,1496.00
2019-05-07T11:49:28.380Z,1536.00
2019-05-07T11:50:28.302Z,1548.00
2019-05-07T11:51:28.291Z,1564.00
2019-05-07T11:52:28.342Z,1596.00
2019-05-07T11:53:28.301Z,1684.00
2019-05-07T11:54:28.330Z,1784.00
2019-05-07T11:55:28.242Z,1908.00
2019-05-07T11:56:28.231Z,2064.00
2019-05-07T11:57:28.233Z,2268.00
2019-05-07T11:58:28.247Z,2488.00
2019-05-07T11:59:28.199Z,2744.00
2019-05-07T12:00:28.187Z,3000.00
2019-05-07T12:01:41.629Z,3272.00
2019-05-07T12:02:29.173Z,3516.00
2019-05-07T12:03:28.184Z,3760.00
2019-05-07T12:04:28.244Z,4060.00
2019-05-07T12:05:28.134Z,4384.00
2019-05-07T12:06:28.123Z,4800.00
2019-05-07T12:07:28.110Z,5116.00
2019-05-07T12:08:39.436Z,5424.00
2019-05-07T12:09:28.101Z,6648.00
2019-05-07T12:10:28.076Z,6452.00
2019-05-07T12:11:28.070Z,6992.00
2019-05-07T12:12:28.055Z,7704.00
2019-05-07T12:13:28.071Z,8188.00
2019-05-07T12:14:31.726Z,8776.00
2019-05-07T12:15:28.023Z,9716.00
2019-05-07T12:16:28.012Z,17568.00
2019-05-07T12:17:28.073Z,10756.00
2019-05-07T12:18:28.024Z,14816.00
2019-05-07T12:19:27.977Z,11524.00
2019-05-07T12:20:27.968Z,12108.00
2019-05-07T12:21:27.956Z,15648.00
2019-05-07T12:22:27.945Z,13732.00
2019-05-07T12:23:27.934Z,12176.00
2019-05-07T12:24:27.950Z,22048.00
2019-05-07T12:25:27.909Z,11868.00
2019-05-07T12:26:27.896Z,11380.00
2019-05-07T12:27:27.885Z,11100.00
2019-05-07T12:28:27.885Z,10272.00
2019-05-07T12:29:27.889Z,9780.00
2019-05-07T12:30:27.852Z,9416.00
2019-05-07T12:31:27.846Z,9096.00
2019-05-07T12:32:27.853Z,8708.00
2019-05-07T12:33:27.820Z,8368.00
2019-05-07T12:34:27.832Z,7844.00
2019-05-07T12:35:27.800Z,7424.00